Time;durP1;ratioP1;P1;durP2;ratioP2;P2;SDS_P1;SDS_P2;PMS_P1;PMS_P2;Temp;Humidity;BMP_temperature;BMP_pressure;BME280_temperature;BME280_humidity;BME280_pressure;Samples;Min_cycle;Max_cycle;Signal;HPM_P1;HPM_P2
2023/10/08 00:00:43;;;;;;;0.10;0.10;;;13.80;99.90;;;;;;5030687;28;20037;-74
2023/10/08 00:03:10;;;;;;;0.10;0.10;;;13.80;99.90;;;;;;5030261;28;20095;-74
2023/10/08 00:05:39;;;;;;;0.15;0.15;;;13.80;99.90;;;;;;5030331;28;20045;-74
2023/10/08 00:08:06;;;;;;;0.10;0.10;;;13.80;99.90;;;;;;5020031;28;20056;-74
2023/10/08 00:10:44;;;;;;;0.15;0.15;;;13.80;99.90;;;;;;5018021;28;20053;-74
2023/10/08 00:13:15;;;;;;;0.15;0.15;;;13.80;99.90;;;;;;5005332;28;20045;-74
2023/10/08 00:15:54;;;;;;;0.20;0.20;;;13.80;99.90;;;;;;4997031;28;20041;-74
2023/10/08 00:18:22;;;;;;;0.20;0.20;;;13.80;99.90;;;;;;5007009;28;20095;-74
2023/10/08 00:21:34;;;;;;;0.10;0.10;;;13.70;99.90;;;;;;5013334;28;20069;-74
2023/10/08 00:23:35;;;;;;;0.10;0.10;;;13.70;99.90;;;;;;4998409;28;20103;-74
2023/10/08 00:26:04;;;;;;;0.13;0.13;;;13.80;99.90;;;;;;5012258;28;20049;-74
2023/10/08 00:28:31;;;;;;;0.10;0.10;;;13.80;99.90;;;;;;5012684;28;20045;-74
2023/10/08 00:30:58;;;;;;;0.10;0.10;;;13.80;99.90;;;;;;5013421;28;20098;-74
2023/10/08 00:33:24;;;;;;;0.20;0.20;;;13.80;99.90;;;;;;5000466;28;20056;-74
2023/10/08 00:35:49;;;;;;;0.10;0.10;;;13.80;99.90;;;;;;5030164;28;20096;-74
2023/10/08 00:38:17;;;;;;;0.10;0.10;;;13.80;99.90;;;;;;5008669;28;20707;-74
2023/10/08 00:40:45;;;;;;;0.10;0.10;;;13.80;99.90;;;;;;5010569;28;20041;-74
2023/10/08 00:43:35;;;;;;;0.10;0.10;;;13.80;99.90;;;;;;5012282;28;20041;-74
2023/10/08 00:46:14;;;;;;;0.20;0.20;;;13.90;99.90;;;;;;5012235;28;20029;-74
2023/10/08 00:48:44;;;;;;;0.20;0.20;;;13.90;99.90;;;;;;5012729;28;20125;-74
2023/10/08 00:51:25;;;;;;;0.10;0.10;;;13.90;99.90;;;;;;5003712;28;20081;-74
2023/10/08 00:54:11;;;;;;;0.20;0.20;;;13.80;99.90;;;;;;5011451;28;20053;-74
2023/10/08 00:59:21;;;;;;;0.10;0.10;;;13.90;99.90;;;;;;5021595;28;20053;-74
2023/10/08 01:01:52;;;;;;;0.15;0.15;;;13.90;99.90;;;;;;5011377;28;20061;-74
2023/10/08 01:04:23;;;;;;;0.10;0.10;;;13.90;99.90;;;;;;5011819;28;20068;-74
2023/10/08 01:06:59;;;;;;;0.13;0.13;;;13.90;99.90;;;;;;5009064;28;20053;-74
2023/10/08 01:09:35;;;;;;;0.20;0.20;;;13.90;99.90;;;;;;5008129;28;20388;-74
2023/10/08 01:14:55;;;;;;;0.15;0.15;;;13.80;99.90;;;;;;5006232;28;20445;-74
2023/10/08 01:17:26;;;;;;;0.10;0.10;;;13.80;99.90;;;;;;5021984;28;20492;-74
2023/10/08 01:20:00;;;;;;;;;;;13.80;99.90;;;;;;5005474;28;20486;-74
2023/10/08 01:22:29;;;;;;;0.20;0.20;;;13.80;99.90;;;;;;5004538;28;20372;-73
2023/10/08 01:24:55;;;;;;;0.20;0.20;;;13.80;99.90;;;;;;5006479;28;20425;-74
2023/10/08 01:27:24;;;;;;;0.20;0.20;;;13.80;99.90;;;;;;5009111;28;20046;-74
2023/10/08 01:29:52;;;;;;;0.20;0.20;;;13.80;99.90;;;;;;5009261;28;20056;-74
2023/10/08 01:32:23;;;;;;;0.20;0.20;;;13.80;99.90;;;;;;5009551;28;20037;-74
2023/10/08 01:34:49;;;;;;;0.10;0.10;;;13.80;99.90;;;;;;5011937;28;20057;-74
2023/10/08 01:37:19;;;;;;;0.10;0.10;;;13.80;99.90;;;;;;5009272;28;20304;-74
2023/10/08 01:39:45;;;;;;;0.10;0.10;;;13.90;99.90;;;;;;5001372;28;20048;-75
2023/10/08 01:42:20;;;;;;;0.17;0.17;;;13.80;99.90;;;;;;5001104;28;20038;-74
2023/10/08 01:44:54;;;;;;;0.10;0.10;;;13.80;99.90;;;;;;5028217;28;20045;-74
2023/10/08 01:47:19;;;;;;;0.10;0.10;;;13.80;99.90;;;;;;5010966;28;20099;-74
2023/10/08 01:49:46;;;;;;;0.10;0.10;;;13.80;99.90;;;;;;5008560;28;20057;-73
2023/10/08 01:52:14;;;;;;;0.10;0.10;;;13.80;99.90;;;;;;5009785;28;20053;-74
2023/10/08 01:54:40;;;;;;;0.20;0.20;;;13.70;99.90;;;;;;5010801;28;20058;-74
2023/10/08 01:57:09;;;;;;;0.10;0.10;;;13.80;99.90;;;;;;5010102;28;20064;-74
2023/10/08 01:59:37;;;;;;;0.10;0.10;;;13.80;99.90;;;;;;5008575;28;20040;-74
2023/10/08 02:02:05;;;;;;;0.20;0.20;;;13.80;99.90;;;;;;5012201;28;20045;-74
2023/10/08 02:04:33;;;;;;;0.10;0.10;;;13.80;99.90;;;;;;5031565;28;20045;-74
2023/10/08 02:06:59;;;;;;;0.10;0.10;;;13.70;99.90;;;;;;5014576;28;20045;-74
2023/10/08 02:09:26;;;;;;;0.10;0.10;;;13.80;99.90;;;;;;5004730;28;20049;-73
2023/10/08 02:11:53;;;;;;;0.15;0.15;;;13.80;99.90;;;;;;5010965;28;20041;-74
2023/10/08 02:14:22;;;;;;;0.10;0.10;;;13.80;99.90;;;;;;5019828;28;20053;-74
2023/10/08 02:16:49;;;;;;;0.13;0.13;;;13.80;99.90;;;;;;5015661;28;20033;-74
2023/10/08 02:19:18;;;;;;;0.10;0.10;;;13.90;99.90;;;;;;5019453;28;20495;-74
2023/10/08 02:21:46;;;;;;;0.10;0.10;;;13.90;99.90;;;;;;5014921;28;20559;-74
2023/10/08 02:24:12;;;;;;;0.20;0.20;;;13.90;99.90;;;;;;5015209;28;20049;-73
2023/10/08 02:26:39;;;;;;;0.10;0.10;;;13.90;99.90;;;;;;5012528;28;20052;-74
2023/10/08 02:29:11;;;;;;;0.10;0.10;;;14.00;99.90;;;;;;5015433;28;20045;-74
2023/10/08 02:31:40;;;;;;;0.20;0.20;;;13.90;99.90;;;;;;5006032;28;20073;-74
2023/10/08 02:34:09;;;;;;;0.10;0.10;;;14.00;99.90;;;;;;5028703;28;20064;-74
2023/10/08 02:36:42;;;;;;;0.10;0.10;;;14.00;99.90;;;;;;5016772;28;20033;-74
2023/10/08 02:39:15;;;;;;;0.20;0.20;;;14.00;99.90;;;;;;5010594;28;20042;-74
2023/10/08 02:41:42;;;;;;;0.10;0.10;;;13.90;99.90;;;;;;5011813;28;20527;-74
2023/10/08 02:44:13;;;;;;;0.10;0.10;;;13.90;99.90;;;;;;5013870;28;20045;-74
2023/10/08 02:46:49;;;;;;;0.10;0.10;;;13.90;99.90;;;;;;5016987;28;20084;-74
2023/10/08 02:49:25;;;;;;;0.20;0.20;;;13.90;99.90;;;;;;5015146;28;20103;-74
2023/10/08 02:51:53;;;;;;;0.10;0.10;;;13.90;99.90;;;;;;5012868;28;20059;-74
2023/10/08 02:54:22;;;;;;;0.10;0.10;;;13.90;99.90;;;;;;5010373;28;20058;-74
2023/10/08 02:56:58;;;;;;;0.10;0.10;;;13.90;99.90;;;;;;5011212;28;20251;-74
2023/10/08 02:59:39;;;;;;;0.10;0.10;;;13.80;99.90;;;;;;5004853;28;20112;-74
2023/10/08 03:02:18;;;;;;;0.20;0.20;;;13.80;99.90;;;;;;5011354;28;20050;-74
2023/10/08 03:04:45;;;;;;;0.20;0.20;;;13.80;99.90;;;;;;5011680;28;20453;-74
2023/10/08 03:07:31;;;;;;;0.10;0.10;;;13.90;99.90;;;;;;5012104;28;21421;-74
2023/10/08 03:10:16;;;;;;;0.20;0.20;;;13.80;99.90;;;;;;5006018;28;20054;-74
2023/10/08 03:12:43;;;;;;;0.30;0.30;;;13.80;99.90;;;;;;5005375;28;20081;-74
2023/10/08 03:17:54;;;;;;;0.20;0.20;;;13.80;99.90;;;;;;5011318;28;20050;-74
2023/10/08 03:20:29;;;;;;;0.10;0.10;;;13.80;99.90;;;;;;5010267;28;20084;-74
2023/10/08 03:22:59;;;;;;;0.20;0.20;;;13.80;99.90;;;;;;5010240;28;20045;-74
2023/10/08 03:25:26;;;;;;;0.20;0.20;;;13.70;99.90;;;;;;5011064;28;20049;-74
2023/10/08 03:27:54;;;;;;;0.17;0.17;;;13.80;99.90;;;;;;5009657;28;20054;-73
2023/10/08 03:30:20;;;;;;;0.10;0.10;;;13.80;99.90;;;;;;5010787;28;20057;-74
2023/10/08 03:32:50;;;;;;;0.10;0.10;;;13.80;99.90;;;;;;5011403;28;20048;-74
2023/10/08 03:35:23;;;;;;;0.20;0.20;;;13.80;99.90;;;;;;5010305;28;20405;-74
2023/10/08 03:37:50;;;;;;;0.10;0.10;;;13.80;99.90;;;;;;5010271;28;20046;-74
2023/10/08 03:40:25;;;;;;;0.10;0.10;;;13.80;99.90;;;;;;5007577;28;20493;-73
2023/10/08 03:42:51;;;;;;;0.20;0.20;;;13.80;99.90;;;;;;5009524;28;20058;-74
2023/10/08 03:45:48;;;;;;;0.20;0.20;;;13.80;99.90;;;;;;5011200;28;20050;-74
2023/10/08 03:48:11;;;;;;;0.10;0.10;;;13.80;99.90;;;;;;5009317;28;20042;-74
2023/10/08 03:50:43;;;;;;;0.20;0.20;;;13.80;99.90;;;;;;5009208;28;20050;-74
2023/10/08 03:53:12;;;;;;;0.10;0.10;;;13.80;99.90;;;;;;5010857;28;20042;-74
2023/10/08 03:55:42;;;;;;;0.10;0.10;;;13.20;99.90;;;;;;5009723;28;20064;-74
2023/10/08 03:58:27;;;;;;;0.20;0.20;;;13.80;99.90;;;;;;5010566;28;20409;-73
2023/10/08 04:01:08;;;;;;;0.20;0.20;;;13.80;99.90;;;;;;5012975;28;20048;-74
2023/10/08 04:11:51;;;;;;;0.10;0.10;;;13.80;99.90;;;;;;5011547;28;20083;-74
2023/10/08 04:14:24;;;;;;;0.20;0.20;;;13.80;99.90;;;;;;5012510;28;20042;-74
2023/10/08 04:16:51;;;;;;;0.10;0.10;;;13.70;99.90;;;;;;5012798;28;20049;-74
2023/10/08 04:19:18;;;;;;;0.10;0.10;;;13.70;99.90;;;;;;5011988;28;20034;-74
2023/10/08 04:21:45;;;;;;;0.10;0.10;;;13.70;99.90;;;;;;5012255;28;20521;-74
2023/10/08 04:24:14;;;;;;;0.10;0.10;;;13.70;99.90;;;;;;5008676;28;20042;-74
2023/10/08 04:26:40;;;;;;;0.20;0.20;;;13.70;99.90;;;;;;5009848;28;20045;-74
2023/10/08 04:29:06;;;;;;;0.20;0.20;;;13.70;99.90;;;;;;5008240;28;20133;-74
2023/10/08 04:31:43;;;;;;;0.10;0.10;;;13.70;99.90;;;;;;5010413;28;20536;-74
2023/10/08 04:34:22;;;;;;;0.20;0.20;;;13.80;99.90;;;;;;5029190;28;20077;-74
2023/10/08 04:36:54;;;;;;;0.13;0.13;;;13.70;99.90;;;;;;5010201;28;20042;-74
2023/10/08 04:39:31;;;;;;;0.10;0.10;;;13.80;99.90;;;;;;5009898;28;20041;-74
2023/10/08 04:41:59;;;;;;;0.10;0.10;;;13.70;99.90;;;;;;5004998;28;20046;-73
2023/10/08 04:44:25;;;;;;;0.20;0.20;;;13.70;99.90;;;;;;5009773;28;20038;-73
2023/10/08 04:46:52;;;;;;;0.17;0.17;;;13.70;99.90;;;;;;5011890;28;20050;-74
2023/10/08 04:49:28;;;;;;;0.20;0.20;;;13.80;99.90;;;;;;5012426;28;20115;-74
2023/10/08 04:51:59;;;;;;;0.10;0.10;;;13.70;99.90;;;;;;5010986;28;20124;-73
2023/10/08 04:54:31;;;;;;;0.20;0.20;;;13.70;99.90;;;;;;5009703;28;20049;-74
2023/10/08 04:57:01;;;;;;;0.10;0.10;;;13.70;99.90;;;;;;5024834;28;20045;-74
2023/10/08 04:59:33;;;;;;;0.10;0.10;;;13.60;99.90;;;;;;5009679;28;20581;-74
2023/10/08 05:02:20;;;;;;;0.17;0.17;;;13.60;99.90;;;;;;5012250;28;20128;-74
2023/10/08 05:13:15;;;;;;;0.10;0.10;;;13.70;99.90;;;;;;5010304;28;20076;-74
2023/10/08 05:15:42;;;;;;;0.20;0.20;;;13.70;99.90;;;;;;5012158;28;20053;-74
2023/10/08 05:18:23;;;;;;;0.10;0.10;;;13.70;99.90;;;;;;5011249;28;20056;-74
2023/10/08 05:23:20;;;;;;;0.20;0.20;;;13.70;99.90;;;;;;5008356;28;20042;-74
2023/10/08 05:28:35;;;;;;;0.10;0.10;;;13.70;99.90;;;;;;5020331;28;20044;-74
2023/10/08 05:31:31;;;;;;;0.15;0.15;;;13.70;99.90;;;;;;5009742;28;20045;-74
2023/10/08 05:39:55;;;;;;;0.10;0.10;;;13.60;99.90;;;;;;5010567;28;20131;-74
2023/10/08 05:42:19;;;;;;;0.10;0.10;;;13.70;99.90;;;;;;5006211;28;20042;-75
2023/10/08 05:44:50;;;;;;;0.10;0.10;;;13.60;99.90;;;;;;5008931;28;20396;-74
2023/10/08 05:47:38;;;;;;;0.20;0.20;;;13.60;99.90;;;;;;5013253;28;20041;-74
2023/10/08 05:53:02;;;;;;;0.10;0.10;;;13.60;99.90;;;;;;5010292;28;20053;-74
2023/10/08 05:55:36;;;;;;;0.10;0.10;;;13.60;99.90;;;;;;5017944;28;20432;-74
2023/10/08 06:08:52;;;;;;;0.20;0.20;;;13.50;99.90;;;;;;5011216;28;20049;-74
2023/10/08 06:14:13;;;;;;;0.10;0.10;;;13.50;99.90;;;;;;5011211;28;20052;-74
2023/10/08 06:16:43;;;;;;;0.10;0.10;;;13.40;99.90;;;;;;5010716;28;20049;-74
2023/10/08 06:19:11;;;;;;;0.20;0.20;;;13.40;99.90;;;;;;5011337;28;20440;-74
2023/10/08 06:21:41;;;;;;;0.20;0.20;;;13.40;99.90;;;;;;5010444;28;20068;-74
2023/10/08 06:24:16;;;;;;;0.20;0.20;;;13.40;99.90;;;;;;5010526;28;20046;-74
2023/10/08 06:26:42;;;;;;;0.10;0.10;;;13.40;99.90;;;;;;5009484;28;20057;-74
2023/10/08 06:29:27;;;;;;;0.20;0.20;;;13.40;99.90;;;;;;5026269;28;20045;-74
2023/10/08 06:31:57;;;;;;;0.43;0.20;;;13.40;99.90;;;;;;5006336;28;20485;-74
2023/10/08 06:34:27;;;;;;;0.20;0.20;;;13.40;99.90;;;;;;5020805;28;20058;-74
2023/10/08 06:36:55;;;;;;;0.10;0.10;;;13.40;99.90;;;;;;5007235;28;20077;-74
2023/10/08 06:39:25;;;;;;;0.10;0.10;;;13.30;99.90;;;;;;5015694;28;20042;-74
2023/10/08 06:41:56;;;;;;;0.10;0.10;;;13.40;99.90;;;;;;5008181;28;20056;-74
2023/10/08 06:44:22;;;;;;;0.10;0.10;;;13.40;99.90;;;;;;5009954;28;20041;-74
2023/10/08 06:46:48;;;;;;;0.10;0.10;;;13.40;99.90;;;;;;5008580;28;20521;-74
2023/10/08 06:49:15;;;;;;;0.10;0.10;;;13.40;99.90;;;;;;5009537;28;20080;-74
2023/10/08 06:51:43;;;;;;;0.20;0.20;;;13.50;99.90;;;;;;5029922;28;20489;-74
2023/10/08 06:54:17;;;;;;;0.10;0.10;;;13.50;99.90;;;;;;5012119;28;20065;-74
2023/10/08 06:56:51;;;;;;;0.10;0.10;;;13.60;99.90;;;;;;5012104;28;20507;-75
2023/10/08 06:59:18;;;;;;;0.20;0.20;;;13.60;99.90;;;;;;5012456;28;20041;-74
2023/10/08 07:01:47;;;;;;;0.10;0.10;;;13.60;99.90;;;;;;5014544;28;20122;-75
2023/10/08 07:04:13;;;;;;;0.10;0.10;;;13.70;99.90;;;;;;5010933;28;20501;-75
2023/10/08 07:06:43;;;;;;;0.13;0.13;;;13.70;99.90;;;;;;5009724;28;20041;-75
2023/10/08 07:09:56;;;;;;;0.13;0.13;;;13.80;99.90;;;;;;5012111;28;20728;-75
2023/10/08 07:12:05;;;;;;;0.20;0.20;;;13.80;99.90;;;;;;5003466;28;20519;-75
2023/10/08 07:14:31;;;;;;;0.20;0.20;;;13.80;99.90;;;;;;5012415;28;20045;-75
2023/10/08 07:16:59;;;;;;;0.20;0.20;;;13.80;99.90;;;;;;5013776;28;20473;-74
2023/10/08 07:19:39;;;;;;;0.10;0.10;;;13.80;99.90;;;;;;5005005;28;20045;-75
2023/10/08 07:22:17;;;;;;;0.10;0.10;;;13.80;99.90;;;;;;5009898;28;20069;-74
2023/10/08 07:24:45;;;;;;;0.20;0.20;;;13.90;99.90;;;;;;5014258;28;20532;-75
2023/10/08 07:27:11;;;;;;;0.20;0.20;;;13.90;99.90;;;;;;5011557;28;20033;-74
2023/10/08 07:29:37;;;;;;;0.15;0.15;;;13.90;99.90;;;;;;5013373;28;20534;-74
2023/10/08 07:32:09;;;;;;;0.20;0.20;;;13.90;99.90;;;;;;5014717;28;20051;-75
2023/10/08 07:34:36;;;;;;;0.10;0.10;;;13.90;99.90;;;;;;5011762;28;20109;-75
2023/10/08 07:37:02;;;;;;;0.10;0.10;;;13.90;99.90;;;;;;5012602;28;20087;-75
2023/10/08 07:41:56;;;;;;;0.13;0.13;;;14.00;99.90;;;;;;5011994;28;20099;-74
2023/10/08 07:44:23;;;;;;;0.10;0.10;;;14.00;99.90;;;;;;5012252;28;20045;-74
2023/10/08 07:46:55;;;;;;;0.20;0.20;;;14.00;99.90;;;;;;5014428;28;20504;-75
2023/10/08 07:49:30;;;;;;;0.17;0.17;;;14.00;99.90;;;;;;5010812;28;20087;-74
2023/10/08 07:51:58;;;;;;;0.10;0.10;;;14.00;99.90;;;;;;5015788;28;20045;-74
2023/10/08 07:54:27;;;;;;;0.10;0.10;;;14.00;99.90;;;;;;5012104;28;20049;-75
2023/10/08 07:57:00;;;;;;;0.20;0.20;;;14.00;99.90;;;;;;5006986;28;20064;-74
2023/10/08 07:59:25;;;;;;;0.20;0.20;;;14.10;99.90;;;;;;5012773;28;20076;-74
2023/10/08 08:01:52;;;;;;;0.20;0.20;;;14.10;99.90;;;;;;5013941;28;20653;-74
2023/10/08 08:04:23;;;;;;;0.10;0.10;;;14.20;99.90;;;;;;5013148;28;20745;-75
2023/10/08 08:06:50;;;;;;;;;;;14.20;99.90;;;;;;5010495;28;20095;-74
2023/10/08 08:09:19;;;;;;;0.10;0.10;;;14.30;99.90;;;;;;5011158;28;20419;-74
2023/10/08 08:11:48;;;;;;;0.13;0.13;;;14.40;99.90;;;;;;5008420;28;20045;-75
2023/10/08 08:14:24;;;;;;;0.10;0.10;;;14.40;99.90;;;;;;5007994;28;20059;-75
2023/10/08 08:16:51;;;;;;;0.10;0.10;;;14.50;99.90;;;;;;5011804;28;20366;-74
2023/10/08 08:19:24;;;;;;;0.20;0.20;;;14.50;99.90;;;;;;5010203;28;20081;-74
2023/10/08 08:21:52;;;;;;;0.10;0.10;;;14.50;99.90;;;;;;5009753;28;20045;-74
2023/10/08 08:24:28;;;;;;;0.10;0.10;;;14.60;99.90;;;;;;5007595;28;20495;-75
2023/10/08 08:27:07;;;;;;;0.10;0.10;;;14.60;99.90;;;;;;5008870;28;20072;-74
2023/10/08 08:29:44;;;;;;;0.20;0.20;;;14.60;99.90;;;;;;5008285;28;20529;-78
2023/10/08 08:32:15;;;;;;;0.20;0.20;;;14.60;99.90;;;;;;5011305;28;20045;-74
2023/10/08 08:34:44;;;;;;;0.20;0.20;;;14.60;99.90;;;;;;5027149;28;20041;-74
2023/10/08 08:37:11;;;;;;;0.20;0.20;;;14.60;99.90;;;;;;5003972;28;20489;-75
2023/10/08 08:39:38;;;;;;;0.10;0.10;;;14.60;99.90;;;;;;5009178;28;20053;-75
2023/10/08 08:42:04;;;;;;;0.10;0.10;;;14.60;99.90;;;;;;5008607;28;20045;-74
2023/10/08 08:44:32;;;;;;;0.10;0.10;;;14.60;99.90;;;;;;5010990;28;20049;-74
2023/10/08 08:47:03;;;;;;;0.20;0.20;;;14.60;99.90;;;;;;5012149;28;20046;-74
2023/10/08 08:49:33;;;;;;;0.10;0.10;;;14.70;99.90;;;;;;5012294;28;20099;-75
2023/10/08 08:52:00;;;;;;;0.20;0.20;;;14.70;99.90;;;;;;5011341;28;20128;-74
2023/10/08 08:54:30;;;;;;;0.10;0.10;;;14.80;99.90;;;;;;5010593;28;20052;-74
2023/10/08 08:56:57;;;;;;;0.10;0.10;;;14.80;99.90;;;;;;5012293;28;20052;-74
2023/10/08 08:59:24;;;;;;;0.10;0.10;;;14.90;99.90;;;;;;5007885;28;20045;-74
2023/10/08 09:01:50;;;;;;;0.10;0.10;;;15.00;99.90;;;;;;5012805;28;20463;-74
2023/10/08 09:04:17;;;;;;;0.20;0.20;;;14.90;99.90;;;;;;5015003;28;20100;-75
2023/10/08 09:06:44;;;;;;;0.20;0.20;;;15.00;99.90;;;;;;5010469;28;20045;-75
2023/10/08 09:09:22;;;;;;;0.20;0.20;;;15.00;99.90;;;;;;5016797;28;20115;-75
2023/10/08 09:11:51;;;;;;;0.10;0.10;;;15.00;99.90;;;;;;5012582;28;20485;-73
2023/10/08 09:14:32;;;;;;;0.15;0.15;;;15.10;99.90;;;;;;5004669;28;20029;-74
2023/10/08 09:16:59;;;;;;;0.13;0.13;;;15.10;99.90;;;;;;5012589;28;20053;-74
2023/10/08 09:19:26;;;;;;;0.20;0.20;;;15.10;99.90;;;;;;5010279;28;20041;-74
2023/10/08 09:22:05;;;;;;;0.17;0.17;;;15.20;99.90;;;;;;5011352;28;20440;-74
2023/10/08 09:24:36;;;;;;;0.10;0.10;;;15.20;99.90;;;;;;5011117;28;20041;-75
2023/10/08 09:27:15;;;;;;;0.20;0.20;;;15.30;99.90;;;;;;5012500;28;20051;-74
2023/10/08 09:29:41;;;;;;;0.10;0.10;;;15.30;99.90;;;;;;5026380;28;21693;-74
2023/10/08 09:32:14;;;;;;;0.10;0.10;;;15.40;99.90;;;;;;5008459;28;20045;-73
2023/10/08 09:34:40;;;;;;;0.10;0.10;;;15.40;99.90;;;;;;5025576;28;20065;-74
2023/10/08 09:37:07;;;;;;;0.10;0.10;;;15.40;99.90;;;;;;5005385;28;20076;-73
2023/10/08 09:39:36;;;;;;;0.10;0.10;;;15.40;99.90;;;;;;5007417;28;20045;-73
2023/10/08 09:42:03;;;;;;;0.10;0.10;;;15.50;99.90;;;;;;5002535;28;20091;-74
2023/10/08 09:44:30;;;;;;;0.10;0.10;;;15.50;99.90;;;;;;5010542;28;20045;-73
2023/10/08 09:46:58;;;;;;;0.10;0.10;;;15.50;99.90;;;;;;5007857;28;20037;-73
2023/10/08 09:49:44;;;;;;;0.13;0.13;;;15.60;99.90;;;;;;5011228;28;20056;-74
2023/10/08 09:52:10;;;;;;;0.20;0.20;;;15.70;99.90;;;;;;5009869;28;20044;-73
2023/10/08 09:54:47;;;;;;;0.20;0.20;;;15.80;99.90;;;;;;5006464;28;20054;-74
2023/10/08 09:57:13;;;;;;;0.10;0.10;;;15.90;99.90;;;;;;5008386;28;20394;-73
2023/10/08 09:59:41;;;;;;;0.20;0.20;;;15.90;99.90;;;;;;5009938;28;20101;-73
2023/10/08 10:02:09;;;;;;;0.20;0.20;;;16.00;99.90;;;;;;5010354;28;20049;-73
2023/10/08 10:04:35;;;;;;;0.20;0.20;;;16.10;99.90;;;;;;5007863;28;20072;-73
2023/10/08 10:07:12;;;;;;;0.10;0.10;;;16.10;99.90;;;;;;5005322;28;20045;-73
2023/10/08 10:09:42;;;;;;;0.20;0.20;;;16.20;99.90;;;;;;5007630;28;20086;-73
2023/10/08 10:12:11;;;;;;;0.10;0.10;;;16.20;99.90;;;;;;5009465;28;20045;-73
2023/10/08 10:14:46;;;;;;;0.17;0.17;;;16.20;99.90;;;;;;5008517;28;20038;-73
2023/10/08 10:17:20;;;;;;;0.20;0.20;;;16.30;99.90;;;;;;5027412;28;20052;-73
2023/10/08 10:19:53;;;;;;;0.10;0.10;;;16.30;99.90;;;;;;5007974;28;20054;-73
2023/10/08 10:22:31;;;;;;;0.10;0.10;;;16.30;99.90;;;;;;5009586;28;20049;-73
2023/10/08 10:24:57;;;;;;;0.20;0.20;;;16.40;99.90;;;;;;5013282;28;20120;-73
2023/10/08 10:27:24;;;;;;;0.20;0.20;;;16.40;99.90;;;;;;5012445;28;20512;-73
2023/10/08 10:29:49;;;;;;;0.10;0.10;;;16.50;99.90;;;;;;5014120;28;20042;-73
2023/10/08 10:32:16;;;;;;;0.10;0.10;;;16.50;99.90;;;;;;5014389;28;20037;-73
2023/10/08 10:34:43;;;;;;;0.20;0.20;;;16.60;99.90;;;;;;5015540;28;20136;-73
2023/10/08 10:37:10;;;;;;;0.20;0.20;;;16.60;99.90;;;;;;5009962;28;20060;-73
2023/10/08 10:39:39;;;;;;;0.20;0.20;;;16.70;99.90;;;;;;5012515;28;20041;-73
2023/10/08 10:42:18;;;;;;;0.20;0.20;;;16.70;99.90;;;;;;5011969;28;20073;-73
2023/10/08 10:44:44;;;;;;;0.10;0.10;;;16.70;99.90;;;;;;5013158;28;20046;-73
2023/10/08 10:52:31;;;;;;;0.15;0.15;;;16.80;99.90;;;;;;5010729;28;20128;-73
2023/10/08 10:55:18;;;;;;;0.20;0.20;;;16.80;99.90;;;;;;5016694;28;20474;-72
2023/10/08 11:00:57;;;;;;;0.10;0.10;;;16.90;99.90;;;;;;4935727;29;20077;-73
2023/10/08 11:03:27;;;;;;;0.20;0.20;;;17.00;99.90;;;;;;5002215;28;20053;-73
2023/10/08 11:05:59;;;;;;;0.20;0.20;;;17.00;99.90;;;;;;5014306;28;20068;-73
2023/10/08 11:08:26;;;;;;;0.20;0.20;;;17.00;99.90;;;;;;5013679;28;20059;-73
2023/10/08 11:10:53;;;;;;;0.20;0.20;;;17.00;99.90;;;;;;5015657;28;20079;-73
2023/10/08 11:13:28;;;;;;;0.10;0.10;;;16.90;99.90;;;;;;5012860;28;20057;-73
2023/10/08 11:15:54;;;;;;;0.20;0.20;;;17.00;99.90;;;;;;5014769;28;20049;-73
2023/10/08 11:18:22;;;;;;;0.20;0.20;;;17.00;99.90;;;;;;5014314;28;20129;-73
2023/10/08 11:21:07;;;;;;;0.15;0.15;;;16.90;99.90;;;;;;5013391;28;20099;-73
2023/10/08 11:23:35;;;;;;;0.13;0.13;;;16.90;99.90;;;;;;5014252;28;20397;-73
2023/10/08 11:26:03;;;;;;;0.10;0.10;;;16.90;99.90;;;;;;5006517;28;20045;-73
2023/10/08 11:28:34;;;;;;;0.10;0.10;;;16.90;99.90;;;;;;5013783;28;20154;-73
2023/10/08 11:31:20;;;;;;;0.20;0.20;;;16.90;99.90;;;;;;5014455;28;20056;-73
2023/10/08 11:33:53;;;;;;;0.20;0.20;;;16.90;99.90;;;;;;5013429;28;20460;-73
2023/10/08 11:36:27;;;;;;;0.20;0.20;;;16.90;99.90;;;;;;5013684;28;20042;-73
2023/10/08 11:39:07;;;;;;;0.20;0.20;;;16.90;99.90;;;;;;5006957;28;20060;-73
2023/10/08 11:41:49;;;;;;;0.15;0.15;;;16.90;99.90;;;;;;5010688;28;20092;-73
2023/10/08 11:44:19;;;;;;;0.20;0.20;;;17.00;99.90;;;;;;5012414;28;20049;-73
2023/10/08 11:46:51;;;;;;;0.20;0.20;;;17.10;99.90;;;;;;5031886;28;20061;-73
2023/10/08 11:49:17;;;;;;;0.13;0.13;;;17.20;99.90;;;;;;5012993;28;20042;-73
2023/10/08 11:51:45;;;;;;;0.10;0.10;;;17.30;99.90;;;;;;5014554;28;20512;-73
2023/10/08 11:54:11;;;;;;;0.10;0.10;;;17.30;99.90;;;;;;5012736;28;20136;-73
2023/10/08 11:56:38;;;;;;;0.20;0.20;;;17.30;99.90;;;;;;5013450;28;20569;-73
2023/10/08 11:59:08;;;;;;;0.20;0.20;;;17.40;99.90;;;;;;5013193;28;20136;-73
2023/10/08 12:01:35;;;;;;;0.10;0.10;;;17.40;99.90;;;;;;5013273;28;20459;-73
2023/10/08 12:04:04;;;;;;;0.17;0.17;;;17.50;99.90;;;;;;5013671;28;20053;-72
2023/10/08 12:06:30;;;;;;;0.20;0.20;;;17.50;99.90;;;;;;5013404;28;20040;-73
2023/10/08 12:08:58;;;;;;;0.10;0.10;;;17.60;99.90;;;;;;5012371;28;20433;-73
2023/10/08 12:11:33;;;;;;;0.20;0.20;;;17.60;99.90;;;;;;5030899;28;20049;-74
2023/10/08 12:13:59;;;;;;;0.20;0.20;;;17.70;99.90;;;;;;5013053;28;20049;-73
2023/10/08 12:16:29;;;;;;;0.20;0.20;;;17.80;99.90;;;;;;5012870;28;20572;-73
2023/10/08 12:18:58;;;;;;;0.10;0.10;;;17.80;99.90;;;;;;5013372;28;20051;-73
2023/10/08 12:21:30;;;;;;;0.20;0.20;;;17.80;99.90;;;;;;5012998;28;20508;-73
2023/10/08 12:24:01;;;;;;;0.10;0.10;;;17.70;99.90;;;;;;5030073;28;20049;-73
2023/10/08 12:26:27;;;;;;;0.17;0.17;;;17.60;99.90;;;;;;5012842;28;20557;-73
2023/10/08 12:28:53;;;;;;;0.20;0.20;;;17.40;99.90;;;;;;5014310;28;20052;-72
2023/10/08 12:31:24;;;;;;;0.10;0.10;;;17.30;99.90;;;;;;5012498;28;20507;-73
2023/10/08 12:34:00;;;;;;;0.20;0.20;;;17.30;99.90;;;;;;5013503;28;20045;-73
2023/10/08 12:36:32;;;;;;;0.20;0.20;;;17.40;99.90;;;;;;5012347;28;20384;-73
2023/10/08 12:38:58;;;;;;;0.20;0.20;;;17.60;99.90;;;;;;5007102;28;20572;-73
2023/10/08 12:41:27;;;;;;;0.20;0.20;;;18.00;99.90;;;;;;5004398;28;20552;-73
2023/10/08 12:43:53;;;;;;;0.20;0.20;;;18.30;99.90;;;;;;5012203;28;20405;-73
2023/10/08 12:46:30;;;;;;;0.20;0.20;;;;;;;;;;5012725;28;20342;-74
2023/10/08 12:48:56;;;;;;;0.20;0.20;;;;;;;;;;4994111;28;20450;-73
2023/10/08 12:51:24;;;;;;;0.20;0.20;;;21.80;99.90;;;;;;5006745;28;20041;-74
2023/10/08 12:54:03;;;;;;;0.20;0.20;;;23.10;99.90;;;;;;5012444;28;20152;-74
2023/10/08 12:56:35;;;;;;;0.20;0.20;;;24.50;99.90;;;;;;5029771;28;20103;-73
2023/10/08 12:59:06;;;;;;;0.20;0.20;;;25.60;99.90;;;;;;5011172;28;20041;-74
2023/10/08 13:01:35;;;;;;;0.20;0.20;;;26.30;99.90;;;;;;5012864;28;20046;-74
2023/10/08 13:04:06;;;;;;;0.20;0.20;;;26.30;99.90;;;;;;5030150;28;20488;-73
2023/10/08 13:06:36;;;;;;;0.20;0.20;;;25.90;99.90;;;;;;5010126;28;20174;-74
2023/10/08 13:09:09;;;;;;;0.20;0.20;;;25.20;99.90;;;;;;5013272;28;20045;-73
2023/10/08 13:11:38;;;;;;;0.20;0.20;;;24.70;99.90;;;;;;5021168;28;20049;-73
2023/10/08 13:14:05;;;;;;;0.20;0.20;;;23.90;99.90;;;;;;5009493;28;20041;-73
2023/10/08 13:16:36;;;;;;;0.20;0.20;;;23.30;99.90;;;;;;5010119;28;20416;-73
2023/10/08 13:19:03;;;;;;;0.20;0.20;;;22.60;99.90;;;;;;4997953;28;20137;-73
2023/10/08 13:21:31;;;;;;;0.20;0.20;;;21.80;99.90;;;;;;5018292;28;20401;-73
2023/10/08 13:23:58;;;;;;;0.20;0.20;;;21.60;99.90;;;;;;5023890;28;20081;-73
2023/10/08 13:26:26;;;;;;;0.20;0.20;;;21.30;99.90;;;;;;5011515;28;20394;-73
2023/10/08 13:28:54;;;;;;;0.20;0.20;;;21.00;99.90;;;;;;4992870;28;20053;-73
2023/10/08 13:31:21;;;;;;;0.20;0.20;;;20.80;99.90;;;;;;5010406;28;20050;-73
2023/10/08 13:33:52;;;;;;;0.20;0.20;;;20.50;99.90;;;;;;5008363;28;20104;-73
2023/10/08 13:36:18;;;;;;;0.30;0.30;;;20.10;99.90;;;;;;5023181;28;20080;-73
2023/10/08 13:38:46;;;;;;;0.20;0.20;;;20.10;99.90;;;;;;5003604;28;20311;-73
2023/10/08 13:41:15;;;;;;;0.20;0.20;;;20.10;99.90;;;;;;5002216;28;20052;-73
2023/10/08 13:43:48;;;;;;;0.20;0.20;;;20.30;99.90;;;;;;5004006;28;20041;-73
2023/10/08 13:46:18;;;;;;;0.20;0.20;;;20.50;99.90;;;;;;5021318;28;20053;-73
2023/10/08 13:48:50;;;;;;;0.20;0.20;;;20.60;99.90;;;;;;5002387;28;20049;-73
2023/10/08 13:51:25;;;;;;;0.20;0.20;;;20.60;99.90;;;;;;5000308;28;20079;-73
2023/10/08 13:54:02;;;;;;;0.20;0.20;;;20.50;99.90;;;;;;5001475;28;20081;-73
2023/10/08 13:56:30;;;;;;;0.20;0.20;;;20.30;99.90;;;;;;5006147;28;20092;-72
2023/10/08 13:59:11;;;;;;;0.20;0.20;;;20.00;99.90;;;;;;5000452;28;20117;-73
2023/10/08 14:01:42;;;;;;;0.20;0.20;;;19.70;99.90;;;;;;5003619;28;20432;-72
2023/10/08 14:04:09;;;;;;;;;;;19.40;99.90;;;;;;5005321;28;20080;-74
2023/10/08 14:06:41;;;;;;;0.20;0.20;;;19.20;99.90;;;;;;5003234;28;19933;-73
2023/10/08 14:09:12;;;;;;;0.20;0.20;;;19.10;99.90;;;;;;4997511;28;20394;-73